Westford, VT

07:59 EDT le 27 avril 2015 (GMT -0400)
Morrisville Stowe State | | Change Station
CLOSE
Current Station
Aéroport
Location: Morrisville,
Altitude: 732 ft
Stations météo à proximité

Alt. 732 ft 44.53 °N, 72.61 °W | Updated 5 minutes ago

Couvert
Couvert
41 ° F
Paraît 39 ° F
N
4
Vent Variable Vent de Nord

Aujourd'hui
Haut(e) -- | Bas -- ° F
--% Risque de précip.
Hier
Haut(e) -- | Bas -- ° F
Precip. -- pouce
5:48 AM 7:51 PM
Lune gibbeuse croissante, 64% visible
Pression 29.70 pouce
Visibilité 10.0 Miles terrestres
Nuages Couvert 2300 ft
Refroidissement éolien 39 ° F
Point de rosée 38 ° F
Humidité 89%
Précipitations 0.00 pouce
Profondeur de la couche neigeuse Non disponible.
UV 1 sur 12
Pollen 9.30 sur 12
Qualité de l'air Non disponible.
Flu Activity Regional
METAR KMVL 271154Z AUTO 36003KT 10SM OVC023 05/03 A2969 RMK AO2 SLP058 60000 T00500033 10061 20044 51011 TSNO

More Conditions Fewer Conditions

Pression 29.70 pouce
Visibilité 10.0 Miles terrestres
Nuages Couvert 2300 ft
Refroidissement éolien 39 ° F
Point de rosée 38 ° F
Humidité 89%
Précipitations 0.00 pouce
Profondeur de la couche neigeuse Non disponible.
UV 1 sur 12
Pollen 9.30 sur 12
Qualité de l'air Non disponible.
Flu Activity Regional
METAR KMVL 271154Z AUTO 36003KT 10SM OVC023 05/03 A2969 RMK AO2 SLP058 60000 T00500033 10061 20044 51011 TSNO

More Conditions Fewer Conditions

10-Day Weather Forecast

Almanac

Astronomie

Apr. 27, 2015 Lever Coucher
Temps réel
Crépuscule civil
Crépuscule nautique
Crépuscule astronomique
Lune
Durée de lumière visible
Longueur du jour
Tomorrow will be .
, % of the Moon is Illuminated

Extrêmes aujourd'hui

State Highs State Lows

Community

WunderPhotos

Upload Photos

1,817,283 Photos téléchargées !

WunderBlogs® & News

Nearby

Qualité de l'air

  Qualité de l'air Indice de la qualité de l'air Polluant
Not available.

Épaisseur de neige

Station Depth Altitude

Activité sismique

Ville Distance Mag. Time & Date
Minimum magnitude displayed is 2.5.

Températures des eaux côtières

Lieu Température

Stations

Stations météo à proximité

Emplacement de la station Température Refroidissement éolien Point de rosée Humidité Vent Precip. Alt. Mise à jour Type